Time;durP1;ratioP1;P1;durP2;ratioP2;P2;SDS_P1;SDS_P2;PMS_P1;PMS_P2;Temp;Humidity;BMP_temperature;BMP_pressure;BME280_temperature;BME280_humidity;BME280_pressure;Samples;Min_cycle;Max_cycle;Signal;HPM_P1;HPM_P2
2023/05/21 00:00:22;;;;;;;18.90;11.63;;;12.30;99.90;;;-144.05;70.71;56840.34;5014515;28;20116;-80
2023/05/21 00:02:51;;;;;;;18.55;11.07;;;12.30;99.90;;;-144.05;70.86;56838.22;5034274;28;20029;-80
2023/05/21 00:05:17;;;;;;;15.80;10.30;;;12.20;99.90;;;-144.05;71.08;56848.84;5034015;28;20028;-82
2023/05/21 00:07:45;;;;;;;17.70;10.70;;;12.20;99.90;;;-144.05;71.48;56840.34;5033518;28;20025;-80
2023/05/21 00:10:12;;;;;;;17.58;11.35;;;12.20;99.90;;;-144.05;71.77;56836.09;5037983;28;20370;-80
2023/05/21 00:12:38;;;;;;;16.40;10.63;;;12.20;99.90;;;-144.05;71.72;56850.97;5040108;28;20034;-83
2023/05/21 00:15:04;;;;;;;15.73;11.18;;;12.20;99.90;;;-144.05;71.92;56872.19;5035789;28;20021;-81
2023/05/21 00:17:35;;;;;;;15.98;10.48;;;12.10;99.90;;;-144.05;72.28;56831.84;5035878;28;20043;-81
2023/05/21 00:20:11;;;;;;;18.33;12.05;;;12.20;99.90;;;-144.05;72.61;56867.94;5039052;28;20029;-81
2023/05/21 00:22:39;;;;;;;16.08;10.98;;;12.20;99.90;;;-144.05;72.17;56855.22;5021419;28;20033;-82
2023/05/21 00:25:11;;;;;;;23.40;11.45;;;12.20;99.90;;;-144.05;72.02;56836.09;5039016;28;20033;-82
2023/05/21 00:27:38;;;;;;;19.70;10.95;;;12.20;99.90;;;-144.05;72.39;56840.34;5038575;28;20080;-82
2023/05/21 00:30:05;;;;;;;15.52;11.18;;;12.20;99.90;;;-144.05;72.24;56829.72;5038543;28;20029;-80
2023/05/21 00:32:31;;;;;;;17.65;10.35;;;12.20;99.90;;;-144.05;72.14;56850.97;5021446;28;20036;-80
2023/05/21 00:34:58;;;;;;;15.77;10.85;;;12.20;99.90;;;-144.05;72.54;56829.72;5041060;28;20485;-81
2023/05/21 00:37:24;;;;;;;16.23;10.45;;;12.20;99.90;;;-144.05;72.18;56831.84;5041524;28;20029;-81
2023/05/21 00:39:50;;;;;;;18.38;10.00;;;12.30;99.90;;;-144.05;71.92;56850.97;5036482;28;20037;-80
2023/05/21 00:42:17;;;;;;;19.20;10.25;;;12.40;99.90;;;-144.05;71.84;56827.59;5037993;28;20026;-80
2023/05/21 00:44:44;;;;;;;13.27;9.52;;;12.40;99.90;;;-144.05;71.37;56825.47;5022115;28;20029;-82
2023/05/21 00:47:12;;;;;;;16.20;10.45;;;12.40;99.90;;;-144.05;71.51;56842.47;5022431;28;20029;-80
2023/05/21 00:49:39;;;;;;;13.00;8.88;;;12.30;99.90;;;-144.05;71.40;56848.84;5038821;28;20048;-80
2023/05/21 00:52:06;;;;;;;14.43;9.63;;;12.30;99.90;;;-144.05;71.57;56853.09;5038654;28;20115;-80
2023/05/21 00:54:32;;;;;;;14.18;9.10;;;12.30;99.90;;;-144.05;71.80;56842.47;5023122;28;20033;-81
2023/05/21 00:57:07;;;;;;;12.63;8.50;;;12.30;99.90;;;-144.05;71.82;56844.59;5037234;28;20029;-81
2023/05/21 00:59:34;;;;;;;11.60;9.15;;;12.30;99.90;;;-144.05;71.80;56850.97;5039496;28;20034;-80
2023/05/21 01:02:03;;;;;;;11.27;8.77;;;12.30;99.90;;;-144.05;71.48;56857.34;5038552;28;20508;-81
2023/05/21 01:04:30;;;;;;;11.93;8.30;;;12.20;99.90;;;-144.05;71.45;56861.56;5037450;28;20029;-80
2023/05/21 01:06:59;;;;;;;12.85;9.30;;;12.20;99.90;;;-144.05;71.55;56827.59;5021073;28;20073;-82
2023/05/21 01:09:27;;;;;;;10.80;8.05;;;12.20;99.90;;;-144.05;71.52;56840.34;5039701;28;20036;-80
2023/05/21 01:11:55;;;;;;;15.20;9.18;;;12.20;99.90;;;-144.05;71.67;56848.84;5034864;28;20104;-81
2023/05/21 01:14:23;;;;;;;12.02;8.93;;;12.10;99.90;;;-144.05;71.96;56823.34;5034963;28;20124;-80
2023/05/21 01:16:51;;;;;;;14.10;8.60;;;12.10;99.90;;;-144.05;72.05;56848.84;5016794;28;20480;-80
2023/05/21 01:19:23;;;;;;;11.25;8.23;;;12.00;99.90;;;-144.05;72.14;56844.59;5034661;28;20025;-80
2023/05/21 01:21:56;;;;;;;10.18;8.02;;;11.90;99.90;;;-144.05;72.35;56853.09;5034642;28;20101;-79
2023/05/21 01:24:22;;;;;;;11.30;7.72;;;11.90;99.90;;;-144.05;72.56;56859.47;5034837;28;20136;-80
2023/05/21 01:26:48;;;;;;;12.25;7.78;;;11.90;99.90;;;-144.05;72.51;56850.97;5034204;28;20061;-79
2023/05/21 01:29:14;;;;;;;11.30;8.18;;;11.90;99.90;;;-144.05;72.73;56846.72;5034584;28;20029;-80
2023/05/21 01:32:21;;;;;;;12.73;7.90;;;11.70;99.90;;;-144.05;73.00;56850.97;5032225;28;20528;-81
2023/05/21 01:35:00;;;;;;;11.50;8.25;;;11.70;99.90;;;-144.05;73.30;56833.97;5033337;28;20033;-81
2023/05/21 01:37:51;;;;;;;13.70;8.32;;;11.70;99.90;;;-144.05;73.72;56848.84;5034688;28;20045;-80
2023/05/21 01:40:50;;;;;;;9.55;7.13;;;11.70;99.90;;;-144.05;73.54;56861.56;5016372;28;20124;-80
2023/05/21 01:43:19;;;;;;;10.55;7.93;;;11.70;99.90;;;-144.05;73.82;56853.09;5016796;28;20188;-80
2023/05/21 01:45:49;;;;;;;11.52;7.50;;;11.80;99.90;;;-144.05;74.16;56861.56;5034695;28;20053;-80
2023/05/21 01:48:18;;;;;;;11.40;8.27;;;11.80;99.90;;;-144.05;74.06;56838.22;5034392;28;20029;-80
2023/05/21 01:50:48;;;;;;;10.48;7.65;;;11.80;99.90;;;-144.05;73.65;56848.84;5034695;28;20059;-79
2023/05/21 01:53:16;;;;;;;10.25;7.80;;;11.70;99.90;;;-144.05;73.83;56865.81;5016864;28;20054;-80
2023/05/21 01:55:42;;;;;;;10.18;8.02;;;11.80;99.90;;;-144.05;73.68;56833.97;5035070;28;20030;-80
2023/05/21 01:58:08;;;;;;;10.15;7.32;;;11.70;99.90;;;-144.05;74.09;56833.97;5018540;28;20041;-80
2023/05/21 02:00:36;;;;;;;10.77;7.32;;;11.70;99.90;;;-144.05;73.97;56831.84;5033801;28;20430;-80
2023/05/21 02:03:02;;;;;;;9.25;6.97;;;11.70;99.90;;;-144.05;74.01;56836.09;5034129;28;20030;-80
2023/05/21 02:05:28;;;;;;;10.90;7.95;;;11.70;99.90;;;-144.05;74.16;56840.34;5034295;28;20044;-80
2023/05/21 02:07:53;;;;;;;11.20;7.63;;;11.70;99.90;;;-144.05;74.34;56846.72;5032674;28;20439;-80
2023/05/21 02:10:19;;;;;;;10.77;7.40;;;11.70;99.90;;;-144.05;74.33;56863.69;5033735;28;20034;-79
2023/05/21 02:12:45;;;;;;;10.02;7.28;;;11.60;99.90;;;-144.05;74.27;56870.06;5016240;28;20087;-80
2023/05/21 02:15:13;;;;;;;11.40;8.05;;;11.60;99.90;;;-144.05;74.88;56840.34;5033878;28;20116;-80
2023/05/21 02:17:39;;;;;;;9.68;7.38;;;11.70;99.90;;;-144.05;74.74;56840.34;5016471;28;20461;-80
2023/05/21 02:20:12;;;;;;;11.15;7.55;;;11.70;99.90;;;-144.05;74.58;56836.09;5033885;28;20025;-79
2023/05/21 02:22:44;;;;;;;10.10;8.13;;;11.60;99.90;;;-144.05;74.75;56846.72;5016435;28;20106;-79
2023/05/21 02:25:15;;;;;;;12.85;7.50;;;11.70;99.90;;;-144.05;74.70;56838.22;5032463;28;20567;-81
2023/05/21 02:27:43;;;;;;;11.43;7.68;;;11.70;99.90;;;-144.05;74.54;56836.09;5033884;28;20069;-79
2023/05/21 02:30:13;;;;;;;11.52;8.45;;;11.60;99.90;;;-144.05;75.09;56844.59;5033617;28;20030;-79
2023/05/21 02:32:41;;;;;;;10.32;7.75;;;11.70;99.90;;;-144.05;74.69;56867.94;5033692;28;20036;-80
2023/05/21 02:35:11;;;;;;;9.35;7.70;;;11.70;99.90;;;-144.05;74.64;56870.06;5015828;28;20116;-80
2023/05/21 02:37:42;;;;;;;11.13;8.63;;;11.70;99.90;;;-144.05;75.24;56853.09;5033674;28;20041;-79
2023/05/21 02:40:09;;;;;;;10.88;7.40;;;11.70;99.90;;;-144.05;75.08;56850.97;5033957;28;20116;-81
2023/05/21 02:42:38;;;;;;;9.85;7.18;;;11.70;99.90;;;-144.05;74.96;56840.34;5015309;28;20435;-80
2023/05/21 02:45:10;;;;;;;13.10;8.55;;;11.60;99.90;;;-144.05;75.44;56863.69;5015733;28;20072;-81
2023/05/21 02:47:37;;;;;;;11.98;8.00;;;11.60;99.90;;;-144.05;75.21;56855.22;5033669;28;20030;-80
2023/05/21 02:50:06;;;;;;;13.70;8.10;;;11.60;99.90;;;-144.05;75.08;56838.22;5033260;28;20053;-81
2023/05/21 02:52:32;;;;;;;10.77;7.78;;;11.60;99.90;;;-144.05;75.42;56838.22;5033332;28;20347;-81
2023/05/21 02:54:57;;;;;;;9.18;7.15;;;11.60;99.90;;;-144.05;75.13;56838.22;5015667;28;20052;-82
2023/05/21 02:57:23;;;;;;;10.73;7.45;;;11.50;99.90;;;-144.05;75.21;56850.97;5033368;28;20144;-81
2023/05/21 02:59:49;;;;;;;8.48;7.45;;;11.50;99.90;;;-144.05;75.47;56846.72;5033434;28;20025;-80
2023/05/21 03:02:15;;;;;;;12.05;7.45;;;11.40;99.90;;;-144.05;75.47;56836.09;5033767;28;20360;-81
2023/05/21 03:04:45;;;;;;;9.73;7.03;;;11.40;99.90;;;-144.05;75.45;56844.59;5015538;28;20060;-79
2023/05/21 03:07:19;;;;;;;10.43;6.82;;;11.30;99.90;;;-144.05;75.60;56872.19;5031866;28;20065;-81
2023/05/21 03:09:45;;;;;;;9.70;7.38;;;11.30;99.90;;;-144.05;75.89;56840.34;5015892;28;20033;-82
2023/05/21 03:12:11;;;;;;;10.65;7.43;;;11.40;99.90;;;-144.05;76.27;56857.34;5033304;28;20029;-80
2023/05/21 03:14:38;;;;;;;9.52;7.13;;;11.30;99.90;;;-144.05;76.39;56819.09;5032219;28;20053;-79
2023/05/21 03:17:04;;;;;;;11.52;8.45;;;11.40;99.90;;;-144.05;76.45;56870.06;5031728;28;20030;-80
2023/05/21 03:19:35;;;;;;;12.60;8.18;;;11.40;99.90;;;-144.05;76.46;56853.09;5015470;28;20120;-80
2023/05/21 03:22:03;;;;;;;11.13;8.50;;;11.40;99.90;;;-144.05;76.46;56848.84;5033207;28;20468;-81
2023/05/21 03:24:29;;;;;;;14.18;9.20;;;11.40;99.90;;;-144.05;76.34;56840.34;5033176;28;20029;-80
2023/05/21 03:26:56;;;;;;;13.02;8.35;;;11.50;99.90;;;-144.05;76.63;56842.47;5032045;28;20036;-79
2023/05/21 03:29:22;;;;;;;13.20;9.20;;;11.50;99.90;;;-144.05;76.56;56848.84;5032009;28;20026;-80
2023/05/21 03:31:47;;;;;;;12.50;8.20;;;11.50;99.90;;;-144.05;76.61;56844.59;5033110;28;20039;-81
2023/05/21 03:34:13;;;;;;;14.77;9.93;;;11.50;99.90;;;-144.05;76.74;56861.56;5032815;28;20068;-79
2023/05/21 03:36:39;;;;;;;13.65;9.38;;;11.40;99.90;;;-144.05;76.86;56825.47;5033198;28;20489;-80
2023/05/21 03:39:05;;;;;;;14.80;9.77;;;11.40;99.90;;;-144.05;76.99;56848.84;5031603;28;20029;-80
2023/05/21 03:41:31;;;;;;;14.20;10.43;;;11.40;99.90;;;-144.05;76.83;56853.09;5033139;28;20026;-79
2023/05/21 03:43:57;;;;;;;18.40;11.52;;;11.40;99.90;;;-144.05;77.21;56859.47;5032780;28;20064;-81
2023/05/21 03:46:23;;;;;;;15.68;11.10;;;11.40;99.90;;;-144.05;76.99;56850.97;5032654;28;20037;-81
2023/05/21 03:48:49;;;;;;;13.85;10.77;;;11.40;99.90;;;-144.05;77.06;56844.59;5032777;28;20036;-82
2023/05/21 03:51:16;;;;;;;14.70;10.48;;;11.40;99.90;;;-144.05;77.31;56846.72;5031505;28;20029;-81
2023/05/21 03:53:42;;;;;;;15.07;10.50;;;11.40;99.90;;;-144.05;77.46;56861.56;5031749;28;20030;-79
2023/05/21 03:56:08;;;;;;;14.13;10.52;;;11.50;99.90;;;-144.05;77.36;56829.72;5032208;28;20021;-81
2023/05/21 03:58:34;;;;;;;14.57;10.98;;;11.50;99.90;;;-144.05;77.54;56863.69;5031010;28;20026;-79
2023/05/21 04:01:01;;;;;;;16.00;10.25;;;11.60;99.90;;;-144.05;77.43;56857.34;5031960;28;20040;-80
2023/05/21 04:03:27;;;;;;;15.90;10.70;;;11.60;99.90;;;-144.05;77.39;56831.84;5014911;28;20018;-80
2023/05/21 04:05:53;;;;;;;13.88;10.82;;;11.60;99.90;;;-144.05;77.26;56855.22;5032366;28;20029;-79
2023/05/21 04:08:19;;;;;;;15.85;10.63;;;11.60;99.90;;;-144.05;77.19;56827.59;5014728;28;20547;-81
2023/05/21 04:10:45;;;;;;;12.70;9.82;;;11.70;99.90;;;-144.05;76.77;56861.56;5030875;28;20026;-79
2023/05/21 04:13:11;;;;;;;13.90;10.70;;;11.70;99.90;;;-144.05;76.88;56848.84;5031254;28;20033;-80
2023/05/21 04:15:37;;;;;;;14.00;10.52;;;11.70;99.90;;;-144.05;76.80;56848.84;5031738;28;20057;-78
2023/05/21 04:18:04;;;;;;;13.43;9.25;;;11.80;99.90;;;-144.05;76.76;56844.59;5015039;28;20029;-78
2023/05/21 04:20:29;;;;;;;12.60;9.00;;;11.80;99.90;;;-144.05;76.82;56846.72;5031690;28;20373;-79
2023/05/21 04:22:55;;;;;;;11.88;9.63;;;11.80;99.90;;;-144.05;76.75;56861.56;5031797;28;20029;-80
2023/05/21 04:25:22;;;;;;;15.57;10.77;;;11.80;99.90;;;-144.05;76.89;56829.72;5031600;28;20120;-80
2023/05/21 04:27:48;;;;;;;12.82;9.32;;;11.90;99.90;;;-144.05;76.55;56827.59;5013723;28;20485;-79
2023/05/21 04:30:15;;;;;;;13.20;9.13;;;11.90;99.90;;;-144.05;76.34;56846.72;5013547;28;20033;-79
2023/05/21 04:32:44;;;;;;;14.32;9.25;;;12.00;99.90;;;-144.05;76.14;56840.34;5031652;28;20029;-79
2023/05/21 04:35:11;;;;;;;12.65;9.18;;;12.00;99.90;;;-144.05;76.18;56827.59;5031614;28;20037;-78
2023/05/21 04:37:40;;;;;;;11.60;9.13;;;12.00;99.90;;;-144.05;75.88;56850.97;5013644;28;20121;-79
2023/05/21 04:40:08;;;;;;;12.02;9.25;;;12.00;99.90;;;-144.05;75.99;56853.09;5030312;28;20029;-78
2023/05/21 04:42:34;;;;;;;11.90;8.98;;;12.10;99.90;;;-144.05;75.85;56861.56;5032179;28;20029;-77
2023/05/21 04:45:01;;;;;;;11.85;9.30;;;12.10;99.90;;;-144.05;75.46;56850.97;5030492;28;20022;-80
2023/05/21 04:47:34;;;;;;;11.68;8.95;;;12.10;99.90;;;-144.05;75.67;56836.09;5031823;28;20030;-78
2023/05/21 04:50:01;;;;;;;11.57;9.15;;;12.10;99.90;;;-144.05;75.49;56846.72;5031473;28;20021;-79
2023/05/21 04:52:27;;;;;;;11.85;9.50;;;12.20;99.90;;;-144.05;75.30;56848.84;5031160;28;20068;-80
2023/05/21 04:54:53;;;;;;;12.25;9.23;;;12.20;99.90;;;-144.05;75.38;56844.59;5013219;28;20030;-79
2023/05/21 04:57:19;;;;;;;13.18;10.05;;;12.20;99.90;;;-144.05;75.13;56838.22;5031431;28;20481;-80
2023/05/21 04:59:45;;;;;;;11.75;8.68;;;12.30;99.90;;;-144.05;74.68;56819.09;5031095;28;20060;-79
2023/05/21 05:02:11;;;;;;;12.27;9.38;;;12.30;99.90;;;-144.05;74.70;56853.09;5032146;28;20539;-79
2023/05/21 05:04:37;;;;;;;15.85;9.85;;;12.30;99.90;;;-144.05;74.73;56838.22;5031571;28;20025;-81
2023/05/21 05:07:03;;;;;;;15.32;10.23;;;12.40;99.90;;;-144.05;74.52;56842.47;5035228;28;20034;-81
2023/05/21 05:09:30;;;;;;;12.18;9.48;;;12.40;99.90;;;-144.05;74.54;56846.72;5016827;28;20026;-77
2023/05/21 05:11:56;;;;;;;10.18;8.50;;;12.40;99.90;;;-144.05;74.13;56867.94;5019383;28;20029;-80
2023/05/21 05:14:22;;;;;;;13.23;9.02;;;12.50;99.90;;;-144.05;73.70;56838.22;5039894;28;20120;-80
2023/05/21 05:16:47;;;;;;;16.17;9.40;;;12.60;99.90;;;-144.05;73.86;56853.09;5039604;28;20029;-80
2023/05/21 05:19:13;;;;;;;12.90;9.32;;;12.60;99.90;;;-144.05;73.76;56861.56;5039478;28;20033;-80
2023/05/21 05:21:39;;;;;;;11.63;9.35;;;12.60;99.90;;;-144.05;73.48;56853.09;5038623;28;20029;-80
2023/05/21 05:24:05;;;;;;;16.33;9.68;;;12.70;99.90;;;-144.05;72.86;56850.97;5039397;28;20029;-81
2023/05/21 05:26:31;;;;;;;13.25;9.68;;;12.70;99.90;;;-144.05;72.63;56844.59;5040076;28;20036;-80
2023/05/21 05:28:57;;;;;;;12.27;9.02;;;12.80;99.90;;;-144.05;72.10;56865.81;5038059;28;20029;-77
2023/05/21 05:31:23;;;;;;;12.35;9.13;;;12.80;99.90;;;-144.05;71.84;56861.56;5020547;28;20492;-80
2023/05/21 05:33:48;;;;;;;13.10;9.63;;;12.90;99.90;;;-144.05;71.54;56865.81;5039294;28;20319;-78
2023/05/21 05:36:15;;;;;;;10.43;8.88;;;13.00;99.90;;;-144.05;71.17;56872.19;5039193;28;20148;-80
2023/05/21 05:38:41;;;;;;;12.70;8.13;;;13.00;99.90;;;-144.05;70.84;56836.09;5021074;28;20032;-79
2023/05/21 05:41:06;;;;;;;11.40;7.93;;;13.00;99.90;;;-144.05;70.56;56825.47;5039738;28;20025;-81
2023/05/21 05:43:32;;;;;;;10.48;8.48;;;13.20;99.90;;;-144.05;70.41;56848.84;5041822;28;20036;-79
2023/05/21 05:45:58;;;;;;;13.27;8.75;;;13.20;99.90;;;-144.05;70.25;56833.97;5038763;28;20030;-80
2023/05/21 05:48:24;;;;;;;9.63;7.60;;;13.30;99.90;;;-144.05;69.87;56842.47;5039309;28;20026;-80
2023/05/21 05:50:53;;;;;;;10.95;7.53;;;13.30;99.90;;;-144.05;69.73;56861.56;5038573;28;20121;-81
2023/05/21 05:53:19;;;;;;;12.32;7.95;;;13.40;99.90;;;-144.05;69.45;56846.72;5037092;28;20025;-81
2023/05/21 05:55:45;;;;;;;10.02;7.60;;;13.50;99.90;;;-144.05;69.08;56865.81;5040344;28;20025;-79
2023/05/21 05:58:11;;;;;;;10.18;7.68;;;13.60;99.90;;;-144.05;68.50;56859.47;5037445;28;20349;-81
2023/05/21 06:00:37;;;;;;;10.20;8.02;;;13.70;99.90;;;-144.05;68.52;56853.09;5039636;28;20045;-81
2023/05/21 06:03:03;;;;;;;14.50;8.93;;;13.70;99.90;;;-144.05;67.88;56850.97;5023052;28;20053;-80
2023/05/21 06:05:28;;;;;;;12.90;9.00;;;13.70;99.90;;;-144.05;67.81;56853.09;5039437;28;20080;-81
2023/05/21 06:07:54;;;;;;;11.05;8.73;;;13.80;99.90;;;-144.05;67.41;56859.47;5038600;28;20034;-78
2023/05/21 06:10:20;;;;;;;11.73;8.68;;;13.80;99.90;;;-144.05;66.95;56853.09;5037397;28;20029;-78
2023/05/21 06:12:46;;;;;;;11.13;8.23;;;13.80;99.90;;;-144.05;66.54;56861.56;5038343;28;20440;-80
2023/05/21 06:15:13;;;;;;;12.02;8.45;;;13.90;99.90;;;-144.05;66.48;56861.56;5037782;28;20025;-79
2023/05/21 06:17:40;;;;;;;9.23;7.43;;;14.00;99.90;;;-144.05;65.99;56833.97;5020901;28;20034;-80
2023/05/21 06:20:08;;;;;;;12.32;8.82;;;14.20;99.90;;;-144.05;65.33;56853.09;5041102;28;20091;-79
2023/05/21 06:22:35;;;;;;;11.50;8.55;;;14.20;99.90;;;-144.05;64.84;56855.22;5021378;28;20500;-79
2023/05/21 06:25:01;;;;;;;10.57;8.38;;;14.30;99.90;;;-144.05;64.69;56853.09;5022707;28;20420;-80
2023/05/21 06:27:27;;;;;;;11.65;8.38;;;14.30;99.90;;;-144.05;64.79;56844.59;5039366;28;20112;-79
2023/05/21 06:29:53;;;;;;;10.55;7.88;;;14.30;99.90;;;-144.05;64.67;56846.72;5022637;28;20071;-81
2023/05/21 06:32:20;;;;;;;12.98;9.05;;;14.40;99.90;;;-144.05;64.03;56874.31;5038568;28;20029;-79
2023/05/21 06:34:46;;;;;;;12.73;8.73;;;14.50;99.90;;;-144.05;63.62;56850.97;5038539;28;20132;-80
2023/05/21 06:37:12;;;;;;;12.38;9.00;;;14.50;99.90;;;-144.05;63.91;56840.34;5038503;28;20097;-79
2023/05/21 06:39:38;;;;;;;11.43;8.55;;;14.60;99.90;;;-144.05;63.21;56846.72;5038378;28;20076;-80
2023/05/21 06:42:04;;;;;;;11.88;9.07;;;14.70;99.90;;;-144.05;62.97;56874.31;5021528;28;20180;-79
2023/05/21 06:44:30;;;;;;;11.00;7.82;;;14.70;99.90;;;-144.05;62.84;56870.06;5039164;28;20022;-81
2023/05/21 06:46:56;;;;;;;11.77;9.43;;;14.80;99.90;;;-144.05;62.98;56846.72;5038641;28;20022;-85
2023/05/21 06:49:21;;;;;;;13.02;9.32;;;14.90;99.90;;;-144.05;62.54;56863.69;5038999;28;20033;-80
2023/05/21 06:51:47;;;;;;;14.48;9.13;;;14.90;99.90;;;-144.05;62.11;56853.09;5018271;28;20060;-80
2023/05/21 06:54:13;;;;;;;11.48;9.43;;;15.10;99.90;;;-144.05;61.60;56857.34;5038864;28;20037;-81
2023/05/21 06:56:39;;;;;;;14.25;10.10;;;15.30;99.90;;;-144.05;60.92;56863.69;5037264;28;20033;-80
2023/05/21 06:59:05;;;;;;;19.10;14.57;;;15.40;99.90;;;-144.05;60.06;56859.47;5037359;28;20088;-81
2023/05/21 07:01:33;;;;;;;15.40;12.00;;;15.50;99.90;;;-144.05;59.70;56853.09;5035944;28;20025;-82
2023/05/21 07:03:59;;;;;;;16.58;12.88;;;15.60;99.90;;;-144.05;59.58;56870.06;5019905;28;20029;-77
2023/05/21 07:06:25;;;;;;;16.00;12.63;;;15.70;99.90;;;-144.05;60.08;56857.34;5037575;28;20459;-81
2023/05/21 07:08:50;;;;;;;16.33;11.98;;;15.60;99.90;;;-144.05;59.55;56874.31;5038239;28;20060;-79
2023/05/21 07:11:16;;;;;;;13.40;11.20;;;15.60;99.90;;;-144.05;59.70;56863.69;5037589;28;20032;-79
2023/05/21 07:13:42;;;;;;;14.30;10.38;;;15.60;99.90;;;-144.05;59.65;56880.69;5036517;28;20029;-77
2023/05/21 07:16:08;;;;;;;15.82;10.98;;;15.70;99.90;;;-144.05;59.13;56842.47;5034169;28;20029;-78
2023/05/21 07:18:34;;;;;;;14.30;10.82;;;15.80;99.90;;;-144.05;58.47;56861.56;5035258;28;20472;-78
2023/05/21 07:21:00;;;;;;;13.30;10.13;;;15.80;99.90;;;-144.05;58.85;56863.69;5036109;28;20025;-77
2023/05/21 07:23:26;;;;;;;15.68;10.35;;;15.80;99.90;;;-144.05;58.74;56848.84;5019498;28;20099;-77
2023/05/21 07:25:52;;;;;;;14.98;11.38;;;15.80;99.90;;;-144.05;59.28;56863.69;5041621;28;20029;-78
2023/05/21 07:28:19;;;;;;;14.70;10.73;;;15.80;99.90;;;-144.05;58.72;56853.09;5040750;28;20022;-78
2023/05/21 07:30:45;;;;;;;15.10;10.50;;;16.00;99.90;;;-144.05;58.96;56842.47;5045204;28;20049;-78
2023/05/21 07:33:11;;;;;;;12.70;10.02;;;16.00;99.90;;;-144.05;58.73;56876.44;5048690;28;20056;-79
2023/05/21 07:35:37;;;;;;;16.20;10.32;;;16.10;99.90;;;-144.05;58.03;56882.81;5049609;28;20033;-79
2023/05/21 07:38:03;;;;;;;14.40;10.60;;;16.30;99.90;;;-144.05;56.86;56863.69;5051869;28;20045;-79
2023/05/21 07:40:29;;;;;;;17.30;11.57;;;16.30;99.90;;;-144.05;56.74;56870.06;5032621;28;20037;-78
2023/05/21 07:42:55;;;;;;;14.60;10.85;;;16.40;99.90;;;-144.05;56.55;56870.06;5051381;28;20032;-75
2023/05/21 07:45:21;;;;;;;13.15;10.75;;;16.60;99.90;;;-144.05;56.47;56861.56;5032065;28;20052;-78
2023/05/21 07:47:46;;;;;;;14.80;11.25;;;16.70;99.90;;;-144.05;55.19;56863.69;5040602;28;20473;-79
2023/05/21 07:50:13;;;;;;;16.50;11.38;;;16.80;99.90;;;-144.05;55.58;56861.56;5041357;28;20033;-79
2023/05/21 07:52:39;;;;;;;12.88;10.13;;;16.90;99.90;;;-144.05;55.24;56882.81;5040063;28;20085;-79
2023/05/21 07:55:07;;;;;;;16.60;10.60;;;17.00;99.90;;;-144.05;54.97;56884.94;5037401;28;20057;-80
2023/05/21 07:57:34;;;;;;;18.17;9.77;;;17.20;99.90;;;-144.05;54.50;56861.56;5019853;28;20060;-79
2023/05/21 08:00:00;;;;;;;12.77;9.88;;;17.30;99.90;;;-144.05;54.34;56872.19;5018350;28;20083;-80
2023/05/21 08:02:26;;;;;;;13.90;10.77;;;17.50;99.90;;;-144.05;53.17;56867.94;5036864;28;20021;-81
2023/05/21 08:04:53;;;;;;;14.60;10.52;;;17.60;99.90;;;-144.05;53.77;56863.69;5018904;28;20036;-79
2023/05/21 08:07:20;;;;;;;13.60;10.40;;;17.60;99.90;;;-144.05;53.11;56884.94;5037296;28;20132;-79
2023/05/21 08:09:46;;;;;;;14.10;9.88;;;17.70;99.90;;;-144.05;52.74;56876.44;5037652;28;20037;-79
2023/05/21 08:12:15;;;;;;;14.48;10.30;;;17.80;99.90;;;-144.05;52.91;56857.34;5037931;28;20033;-80
2023/05/21 08:14:41;;;;;;;13.23;10.10;;;17.80;99.90;;;-144.05;53.21;56863.69;5036235;28;20438;-78
2023/05/21 08:17:10;;;;;;;13.32;9.75;;;17.60;99.90;;;-144.05;53.14;56893.44;5037123;28;20037;-77
2023/05/21 08:19:36;;;;;;;12.90;9.63;;;17.70;99.90;;;-144.05;52.98;56874.31;5020854;28;20032;-79
2023/05/21 08:22:02;;;;;;;14.60;10.52;;;18.00;99.90;;;-144.05;51.92;56872.19;5039178;28;20077;-79
2023/05/21 08:24:28;;;;;;;12.18;10.80;;;18.20;99.90;;;-144.05;51.37;56880.69;5017233;28;20080;-79
2023/05/21 08:26:54;;;;;;;15.82;11.40;;;18.40;99.90;;;-144.05;51.81;56872.19;5019079;28;20053;-77
2023/05/21 08:29:20;;;;;;;17.90;11.10;;;18.40;99.90;;;-144.05;50.88;56867.94;5034864;28;20026;-77
2023/05/21 08:31:46;;;;;;;15.25;11.15;;;18.60;99.90;;;-144.05;49.69;56889.19;5032239;28;20037;-79
2023/05/21 08:34:11;;;;;;;14.85;11.02;;;18.70;99.90;;;-144.05;49.90;56891.31;5033144;28;20029;-77
2023/05/21 08:36:37;;;;;;;16.27;10.90;;;18.80;99.90;;;-144.05;49.50;56899.81;5015144;28;20389;-79
2023/05/21 08:39:03;;;;;;;13.07;10.88;;;19.00;99.90;;;-144.05;48.39;56870.06;5024279;28;20061;-79
2023/05/21 08:41:35;;;;;;;12.68;10.23;;;19.50;99.90;;;-144.05;47.74;56921.06;5037016;28;20044;-80
2023/05/21 08:44:03;;;;;;;14.77;10.07;;;19.90;99.90;;;-144.05;46.51;56921.06;5037147;28;20108;-78
2023/05/21 08:46:33;;;;;;;14.25;10.40;;;20.10;99.90;;;-144.05;46.59;56901.94;5036025;28;20030;-78
2023/05/21 08:49:02;;;;;;;13.05;10.52;;;20.10;99.90;;;-144.05;46.40;56918.94;5018596;28;20044;-78
2023/05/21 08:51:30;;;;;;;15.88;11.85;;;19.90;99.90;;;-144.05;46.93;56912.56;5036433;28;20141;-79
2023/05/21 08:54:00;;;;;;;14.40;10.05;;;19.80;99.90;;;-144.05;47.12;56908.31;5036417;28;20426;-79
2023/05/21 08:56:27;;;;;;;12.60;9.60;;;19.60;99.90;;;-144.05;48.00;56908.31;5018222;28;20514;-80
2023/05/21 08:58:54;;;;;;;17.48;12.05;;;19.70;99.90;;;-144.05;48.32;56897.69;5035815;28;20034;-78
2023/05/21 09:01:21;;;;;;;13.23;10.30;;;19.60;99.90;;;-144.05;48.26;56914.69;5017317;28;20477;-79
2023/05/21 09:03:51;;;;;;;16.48;11.80;;;19.70;99.90;;;-144.05;47.67;56904.06;5034219;28;20121;-78
2023/05/21 09:06:18;;;;;;;14.15;11.48;;;19.80;99.90;;;-144.05;46.93;56908.31;5038954;28;20037;-80
2023/05/21 09:09:05;;;;;;;14.55;10.90;;;19.70;99.90;;;-144.05;47.72;56884.94;5021951;28;20080;-80
2023/05/21 09:11:36;;;;;;;16.38;11.30;;;19.70;99.90;;;-144.05;47.21;56887.06;5042075;28;20030;-81
2023/05/21 09:14:04;;;;;;;16.45;10.48;;;19.70;99.90;;;-144.05;47.69;56938.03;5045067;28;20084;-81
2023/05/21 09:16:30;;;;;;;12.63;10.32;;;19.80;99.90;;;-144.05;47.00;56921.06;5044540;28;20116;-82
2023/05/21 09:18:56;;;;;;;14.13;11.73;;;19.80;99.90;;;-144.05;47.69;56912.56;5043301;28;20048;-80
2023/05/21 09:21:25;;;;;;;16.65;12.23;;;19.80;99.90;;;-144.05;47.89;56908.31;5042550;28;20037;-80
2023/05/21 09:23:59;;;;;;;15.65;11.95;;;19.80;99.90;;;-144.05;47.85;56908.31;5042793;28;20057;-80
2023/05/21 09:26:26;;;;;;;16.00;11.65;;;19.90;99.90;;;-144.05;47.11;56918.94;5044211;28;20028;-78
2023/05/21 09:28:58;;;;;;;16.00;11.35;;;19.90;99.90;;;-144.05;46.76;56921.06;5055389;28;20018;-79
2023/05/21 09:31:25;;;;;;;14.63;11.25;;;20.30;99.90;;;-144.05;45.45;56927.41;5053586;28;20116;-78
2023/05/21 09:33:52;;;;;;;15.70;11.50;;;20.70;99.90;;;-144.05;45.06;56921.06;5053713;28;20433;-78
2023/05/21 09:36:20;;;;;;;14.93;11.40;;;21.00;99.90;;;-144.05;44.04;56933.78;5054231;28;20029;-76
2023/05/21 09:38:50;;;;;;;14.05;10.50;;;21.40;99.90;;;-144.05;45.08;56933.78;5037478;28;20101;-78
2023/05/21 09:41:18;;;;;;;17.13;12.27;;;21.60;99.90;;;-144.05;43.53;56931.66;5054246;28;20077;-78
2023/05/21 09:43:47;;;;;;;13.60;10.70;;;21.70;99.90;;;-144.05;42.45;56935.91;5052324;28;20036;-78
2023/05/21 09:46:13;;;;;;;13.02;11.05;;;22.00;99.90;;;-144.05;43.49;56946.53;5053595;28;20040;-79
2023/05/21 09:48:42;;;;;;;16.30;13.48;;;22.10;99.90;;;-144.05;42.67;56912.56;5035520;28;20120;-79
2023/05/21 09:51:20;;;;;;;16.00;12.35;;;21.80;99.90;;;-144.05;43.20;56929.53;5053189;28;20029;-80
2023/05/21 09:53:56;;;;;;;17.27;12.40;;;21.60;99.90;;;-144.05;43.84;56957.16;5053584;28;20025;-79
2023/05/21 09:56:30;;;;;;;13.35;10.38;;;21.60;99.90;;;-144.05;43.90;56923.19;5036250;28;20025;-80
2023/05/21 09:59:03;;;;;;;17.42;12.52;;;21.50;99.90;;;-144.05;44.30;56935.91;5043899;28;20029;-82